sensor_id;sensor_type;location;lat;lon;timestamp;temperature;humidity
8736;DHT22;4404;49.308;12.178;2023-07-20T05:43:29;17.60;99.90
8736;DHT22;4404;49.308;12.178;2023-07-20T05:45:31;17.70;99.90
8736;DHT22;4404;49.308;12.178;2023-07-20T05:47:33;17.90;99.90
8736;DHT22;4404;49.308;12.178;2023-07-20T05:49:36;17.90;99.90
8736;DHT22;4404;49.308;12.178;2023-07-20T05:51:38;18.00;99.90
8736;DHT22;4404;49.308;12.178;2023-07-20T05:53:39;18.20;99.90
8736;DHT22;4404;49.308;12.178;2023-07-20T05:55:41;18.50;99.90
8736;DHT22;4404;49.308;12.178;2023-07-20T05:57:44;18.70;99.90
8736;DHT22;4404;49.308;12.178;2023-07-20T05:59:47;18.70;99.90
8736;DHT22;4404;49.308;12.178;2023-07-20T06:01:51;18.90;99.90
8736;DHT22;4404;49.308;12.178;2023-07-20T06:03:53;19.10;99.90
8736;DHT22;4404;49.308;12.178;2023-07-20T06:05:59;19.10;99.90
8736;DHT22;4404;49.308;12.178;2023-07-20T06:08:02;19.00;99.90
8736;DHT22;4404;49.308;12.178;2023-07-20T06:10:06;19.10;99.90
8736;DHT22;4404;49.308;12.178;2023-07-20T06:12:09;19.00;99.90
8736;DHT22;4404;49.308;12.178;2023-07-20T06:14:11;18.90;99.90
8736;DHT22;4404;49.308;12.178;2023-07-20T06:16:14;18.90;99.90
8736;DHT22;4404;49.308;12.178;2023-07-20T06:18:16;19.10;99.90
8736;DHT22;4404;49.308;12.178;2023-07-20T06:20:17;19.10;99.90
8736;DHT22;4404;49.308;12.178;2023-07-20T06:22:20;19.20;99.90
8736;DHT22;4404;49.308;12.178;2023-07-20T06:24:22;19.10;99.90
8736;DHT22;4404;49.308;12.178;2023-07-20T06:26:24;19.30;99.90
8736;DHT22;4404;49.308;12.178;2023-07-20T06:28:26;19.30;99.90
8736;DHT22;4404;49.308;12.178;2023-07-20T06:30:28;19.60;99.90
8736;DHT22;4404;49.308;12.178;2023-07-20T06:32:32;19.60;99.90
8736;DHT22;4404;49.308;12.178;2023-07-20T06:34:34;20.30;99.90
8736;DHT22;4404;49.308;12.178;2023-07-20T06:36:37;19.80;99.90
8736;DHT22;4404;49.308;12.178;2023-07-20T06:38:39;19.80;99.90
8736;DHT22;4404;49.308;12.178;2023-07-20T06:40:41;19.80;99.90
8736;DHT22;4404;49.308;12.178;2023-07-20T06:42:43;19.90;99.90
8736;DHT22;4404;49.308;12.178;2023-07-20T06:44:46;19.70;99.90
8736;DHT22;4404;49.308;12.178;2023-07-20T06:46:48;19.60;99.90
8736;DHT22;4404;49.308;12.178;2023-07-20T06:48:51;19.50;99.90
8736;DHT22;4404;49.308;12.178;2023-07-20T06:50:54;19.50;99.90
8736;DHT22;4404;49.308;12.178;2023-07-20T06:52:56;19.70;99.90
8736;DHT22;4404;49.308;12.178;2023-07-20T06:54:59;19.90;99.90
8736;DHT22;4404;49.308;12.178;2023-07-20T06:57:00;20.00;99.90
8736;DHT22;4404;49.308;12.178;2023-07-20T06:59:02;20.20;99.90
8736;DHT22;4404;49.308;12.178;2023-07-20T07:01:05;20.20;99.90
8736;DHT22;4404;49.308;12.178;2023-07-20T07:03:07;19.90;99.90
8736;DHT22;4404;49.308;12.178;2023-07-20T07:05:10;20.00;99.90
8736;DHT22;4404;49.308;12.178;2023-07-20T07:07:14;19.90;99.90
8736;DHT22;4404;49.308;12.178;2023-07-20T07:09:16;19.80;99.90
8736;DHT22;4404;49.308;12.178;2023-07-20T07:11:18;19.80;99.90
8736;DHT22;4404;49.308;12.178;2023-07-20T07:13:21;19.60;99.90
8736;DHT22;4404;49.308;12.178;2023-07-20T07:15:23;19.50;99.90
8736;DHT22;4404;49.308;12.178;2023-07-20T07:17:28;19.50;99.90
8736;DHT22;4404;49.308;12.178;2023-07-20T07:19:40;19.50;99.90
8736;DHT22;4404;49.308;12.178;2023-07-20T07:21:44;19.50;99.90
8736;DHT22;4404;49.308;12.178;2023-07-20T07:23:46;19.60;99.90
8736;DHT22;4404;49.308;12.178;2023-07-20T07:25:48;19.50;99.90
8736;DHT22;4404;49.308;12.178;2023-07-20T07:27:52;19.40;99.90
8736;DHT22;4404;49.308;12.178;2023-07-20T07:29:56;19.40;99.90
8736;DHT22;4404;49.308;12.178;2023-07-20T07:31:58;19.50;99.90
8736;DHT22;4404;49.308;12.178;2023-07-20T07:34:00;19.60;99.90
8736;DHT22;4404;49.308;12.178;2023-07-20T07:36:03;19.60;99.90
8736;DHT22;4404;49.308;12.178;2023-07-20T07:38:07;19.80;99.90
8736;DHT22;4404;49.308;12.178;2023-07-20T07:40:10;19.90;99.90
8736;DHT22;4404;49.308;12.178;2023-07-20T07:42:12;20.10;99.90
8736;DHT22;4404;49.308;12.178;2023-07-20T07:44:15;20.20;99.90
8736;DHT22;4404;49.308;12.178;2023-07-20T07:46:17;20.10;99.90
8736;DHT22;4404;49.308;12.178;2023-07-20T07:48:19;20.30;99.90
8736;DHT22;4404;49.308;12.178;2023-07-20T07:50:22;20.30;99.90
8736;DHT22;4404;49.308;12.178;2023-07-20T07:52:24;20.30;99.90
8736;DHT22;4404;49.308;12.178;2023-07-20T07:54:27;20.30;99.90
8736;DHT22;4404;49.308;12.178;2023-07-20T07:56:29;20.30;99.90
8736;DHT22;4404;49.308;12.178;2023-07-20T07:58:33;20.30;99.90
8736;DHT22;4404;49.308;12.178;2023-07-20T08:00:36;20.20;99.90
8736;DHT22;4404;49.308;12.178;2023-07-20T08:02:38;20.50;99.90
8736;DHT22;4404;49.308;12.178;2023-07-20T08:04:39;20.70;99.90
8736;DHT22;4404;49.308;12.178;2023-07-20T08:06:41;20.70;99.90
8736;DHT22;4404;49.308;12.178;2023-07-20T08:08:43;20.80;99.90
8736;DHT22;4404;49.308;12.178;2023-07-20T08:10:47;21.00;99.90
8736;DHT22;4404;49.308;12.178;2023-07-20T08:12:50;21.40;99.90
8736;DHT22;4404;49.308;12.178;2023-07-20T08:14:52;21.50;99.90
8736;DHT22;4404;49.308;12.178;2023-07-20T08:16:54;21.40;99.90
8736;DHT22;4404;49.308;12.178;2023-07-20T08:18:56;21.60;99.90
8736;DHT22;4404;49.308;12.178;2023-07-20T08:20:58;21.20;99.90
8736;DHT22;4404;49.308;12.178;2023-07-20T08:23:00;21.20;99.90
8736;DHT22;4404;49.308;12.178;2023-07-20T08:25:01;21.30;99.90
8736;DHT22;4404;49.308;12.178;2023-07-20T08:27:08;21.10;99.90
8736;DHT22;4404;49.308;12.178;2023-07-20T08:29:09;21.20;99.90
8736;DHT22;4404;49.308;12.178;2023-07-20T08:31:12;21.30;99.90
8736;DHT22;4404;49.308;12.178;2023-07-20T08:33:24;21.50;99.90
8736;DHT22;4404;49.308;12.178;2023-07-20T08:35:32;21.80;99.90
8736;DHT22;4404;49.308;12.178;2023-07-20T08:37:35;21.90;99.90
8736;DHT22;4404;49.308;12.178;2023-07-20T08:39:37;21.70;99.90
8736;DHT22;4404;49.308;12.178;2023-07-20T08:41:39;21.80;99.90
8736;DHT22;4404;49.308;12.178;2023-07-20T08:43:47;21.40;99.90
8736;DHT22;4404;49.308;12.178;2023-07-20T08:45:50;21.40;99.90
8736;DHT22;4404;49.308;12.178;2023-07-20T08:47:58;21.60;99.90
8736;DHT22;4404;49.308;12.178;2023-07-20T08:50:02;21.90;99.90
8736;DHT22;4404;49.308;12.178;2023-07-20T08:52:14;22.10;99.90
8736;DHT22;4404;49.308;12.178;2023-07-20T08:54:24;22.40;99.90
8736;DHT22;4404;49.308;12.178;2023-07-20T08:56:26;20.80;99.90
8736;DHT22;4404;49.308;12.178;2023-07-20T08:58:31;22.20;99.90
8736;DHT22;4404;49.308;12.178;2023-07-20T09:00:37;22.00;99.90
8736;DHT22;4404;49.308;12.178;2023-07-20T09:02:39;21.60;99.90
8736;DHT22;4404;49.308;12.178;2023-07-20T09:04:42;21.60;99.90
8736;DHT22;4404;49.308;12.178;2023-07-20T09:06:44;21.80;99.90
8736;DHT22;4404;49.308;12.178;2023-07-20T09:08:47;22.10;99.90
8736;DHT22;4404;49.308;12.178;2023-07-20T09:10:51;22.00;99.90
8736;DHT22;4404;49.308;12.178;2023-07-20T09:12:54;22.00;99.90
8736;DHT22;4404;49.308;12.178;2023-07-20T09:14:58;22.40;99.70
8736;DHT22;4404;49.308;12.178;2023-07-20T09:17:03;22.60;99.90
8736;DHT22;4404;49.308;12.178;2023-07-20T09:19:06;22.90;99.10
8736;DHT22;4404;49.308;12.178;2023-07-20T09:21:09;23.20;99.80
8736;DHT22;4404;49.308;12.178;2023-07-20T09:23:17;23.10;94.00
8736;DHT22;4404;49.308;12.178;2023-07-20T09:25:19;22.60;93.60
8736;DHT22;4404;49.308;12.178;2023-07-20T09:27:34;22.70;94.50
8736;DHT22;4404;49.308;12.178;2023-07-20T09:29:47;22.70;94.40
8736;DHT22;4404;49.308;12.178;2023-07-20T09:32:00;22.90;94.80
8736;DHT22;4404;49.308;12.178;2023-07-20T09:34:05;23.20;91.70
8736;DHT22;4404;49.308;12.178;2023-07-20T09:36:09;23.00;91.30
8736;DHT22;4404;49.308;12.178;2023-07-20T09:38:15;23.30;92.30
8736;DHT22;4404;49.308;12.178;2023-07-20T09:40:28;23.70;91.30
8736;DHT22;4404;49.308;12.178;2023-07-20T09:42:37;23.80;91.50
8736;DHT22;4404;49.308;12.178;2023-07-20T09:44:39;23.80;89.00
8736;DHT22;4404;49.308;12.178;2023-07-20T09:46:47;23.70;90.10
8736;DHT22;4404;49.308;12.178;2023-07-20T09:48:54;23.50;88.30
8736;DHT22;4404;49.308;12.178;2023-07-20T09:50:56;23.50;87.90
8736;DHT22;4404;49.308;12.178;2023-07-20T09:52:58;23.60;87.50
8736;DHT22;4404;49.308;12.178;2023-07-20T09:55:03;23.70;88.30
8736;DHT22;4404;49.308;12.178;2023-07-20T09:57:07;24.00;89.20
8736;DHT22;4404;49.308;12.178;2023-07-20T09:59:14;24.00;90.10
8736;DHT22;4404;49.308;12.178;2023-07-20T10:01:20;24.20;90.10
8736;DHT22;4404;49.308;12.178;2023-07-20T10:03:29;23.90;90.20
8736;DHT22;4404;49.308;12.178;2023-07-20T10:05:43;23.60;90.30
8736;DHT22;4404;49.308;12.178;2023-07-20T10:07:56;23.40;90.20
8736;DHT22;4404;49.308;12.178;2023-07-20T10:10:02;23.30;91.70
8736;DHT22;4404;49.308;12.178;2023-07-20T10:12:10;23.50;90.10
8736;DHT22;4404;49.308;12.178;2023-07-20T10:14:18;23.60;87.60
8736;DHT22;4404;49.308;12.178;2023-07-20T10:16:31;24.00;87.10
8736;DHT22;4404;49.308;12.178;2023-07-20T10:18:41;24.00;84.40
8736;DHT22;4404;49.308;12.178;2023-07-20T10:20:48;24.00;87.80
8736;DHT22;4404;49.308;12.178;2023-07-20T10:22:53;24.30;85.50
8736;DHT22;4404;49.308;12.178;2023-07-20T10:24:56;24.20;84.80
8736;DHT22;4404;49.308;12.178;2023-07-20T10:27:00;24.30;86.10
8736;DHT22;4404;49.308;12.178;2023-07-20T10:29:03;24.30;84.80
8736;DHT22;4404;49.308;12.178;2023-07-20T10:31:08;24.20;86.70
8736;DHT22;4404;49.308;12.178;2023-07-20T10:33:11;24.20;83.10
8736;DHT22;4404;49.308;12.178;2023-07-20T10:35:14;24.00;84.80
8736;DHT22;4404;49.308;12.178;2023-07-20T10:37:49;23.70;78.30
8736;DHT22;4404;49.308;12.178;2023-07-20T10:39:55;23.40;78.70
8736;DHT22;4404;49.308;12.178;2023-07-20T10:42:01;23.70;78.80
8736;DHT22;4404;49.308;12.178;2023-07-20T10:44:06;23.90;77.40
8736;DHT22;4404;49.308;12.178;2023-07-20T10:46:11;24.00;76.60
8736;DHT22;4404;49.308;12.178;2023-07-20T10:48:15;24.10;75.80
8736;DHT22;4404;49.308;12.178;2023-07-20T10:50:21;23.80;77.30
8736;DHT22;4404;49.308;12.178;2023-07-20T10:52:23;23.60;79.60
8736;DHT22;4404;49.308;12.178;2023-07-20T10:54:47;23.30;79.70
8736;DHT22;4404;49.308;12.178;2023-07-20T10:56:50;23.70;79.60
8736;DHT22;4404;49.308;12.178;2023-07-20T10:58:56;24.20;80.40
8736;DHT22;4404;49.308;12.178;2023-07-20T11:01:04;24.50;78.30
8736;DHT22;4404;49.308;12.178;2023-07-20T11:03:07;24.70;75.10
8736;DHT22;4404;49.308;12.178;2023-07-20T11:05:31;25.20;75.20
8736;DHT22;4404;49.308;12.178;2023-07-20T11:07:38;24.80;72.10
8736;DHT22;4404;49.308;12.178;2023-07-20T11:09:41;24.10;73.30
8736;DHT22;4404;49.308;12.178;2023-07-20T11:11:46;23.80;75.00
8736;DHT22;4404;49.308;12.178;2023-07-20T11:13:59;23.70;76.30
8736;DHT22;4404;49.308;12.178;2023-07-20T11:16:03;23.30;78.00
8736;DHT22;4404;49.308;12.178;2023-07-20T11:18:11;23.50;78.30
8736;DHT22;4404;49.308;12.178;2023-07-20T11:20:14;24.00;75.80
8736;DHT22;4404;49.308;12.178;2023-07-20T11:22:18;24.10;73.80
8736;DHT22;4404;49.308;12.178;2023-07-20T11:24:21;23.90;74.30
8736;DHT22;4404;49.308;12.178;2023-07-20T11:26:25;23.70;74.90
8736;DHT22;4404;49.308;12.178;2023-07-20T11:28:30;23.50;76.00
8736;DHT22;4404;49.308;12.178;2023-07-20T11:30:33;23.60;75.90
8736;DHT22;4404;49.308;12.178;2023-07-20T11:32:35;23.90;73.10
8736;DHT22;4404;49.308;12.178;2023-07-20T11:34:37;24.20;71.20
8736;DHT22;4404;49.308;12.178;2023-07-20T11:36:40;24.40;70.20
8736;DHT22;4404;49.308;12.178;2023-07-20T11:38:42;24.70;72.50
8736;DHT22;4404;49.308;12.178;2023-07-20T11:40:45;25.00;68.30
8736;DHT22;4404;49.308;12.178;2023-07-20T11:42:49;25.00;66.20
8736;DHT22;4404;49.308;12.178;2023-07-20T11:44:52;25.20;64.50
8736;DHT22;4404;49.308;12.178;2023-07-20T11:47:01;25.40;62.90
8736;DHT22;4404;49.308;12.178;2023-07-20T11:49:04;25.70;63.50
8736;DHT22;4404;49.308;12.178;2023-07-20T11:51:06;25.70;64.20
8736;DHT22;4404;49.308;12.178;2023-07-20T11:53:16;25.50;63.00
8736;DHT22;4404;49.308;12.178;2023-07-20T11:55:19;25.30;63.50
8736;DHT22;4404;49.308;12.178;2023-07-20T11:57:21;25.20;65.70
8736;DHT22;4404;49.308;12.178;2023-07-20T11:59:25;25.30;65.10
8736;DHT22;4404;49.308;12.178;2023-07-20T12:01:27;25.00;64.40
8736;DHT22;4404;49.308;12.178;2023-07-20T12:03:32;25.10;65.40
8736;DHT22;4404;49.308;12.178;2023-07-20T12:05:34;25.40;63.20
8736;DHT22;4404;49.308;12.178;2023-07-20T12:07:36;25.30;62.30
8736;DHT22;4404;49.308;12.178;2023-07-20T12:09:40;25.00;62.00
8736;DHT22;4404;49.308;12.178;2023-07-20T12:11:44;25.10;62.40
8736;DHT22;4404;49.308;12.178;2023-07-20T12:13:47;25.10;62.30
8736;DHT22;4404;49.308;12.178;2023-07-20T12:16:08;25.20;63.20
8736;DHT22;4404;49.308;12.178;2023-07-20T12:18:12;25.30;62.70
8736;DHT22;4404;49.308;12.178;2023-07-20T12:20:25;25.40;62.60
8736;DHT22;4404;49.308;12.178;2023-07-20T12:22:27;25.70;63.20
8736;DHT22;4404;49.308;12.178;2023-07-20T12:24:31;25.70;60.20
8736;DHT22;4404;49.308;12.178;2023-07-20T12:26:35;26.20;61.80
8736;DHT22;4404;49.308;12.178;2023-07-20T12:28:42;26.30;59.90
8736;DHT22;4404;49.308;12.178;2023-07-20T12:30:47;26.00;60.50
8736;DHT22;4404;49.308;12.178;2023-07-20T12:33:04;26.00;60.50
8736;DHT22;4404;49.308;12.178;2023-07-20T12:35:12;25.70;59.90
8736;DHT22;4404;49.308;12.178;2023-07-20T12:37:18;26.00;61.30
8736;DHT22;4404;49.308;12.178;2023-07-20T12:39:22;26.30;61.80
8736;DHT22;4404;49.308;12.178;2023-07-20T12:41:31;26.30;62.10
8736;DHT22;4404;49.308;12.178;2023-07-20T12:43:36;25.80;61.00
8736;DHT22;4404;49.308;12.178;2023-07-20T12:45:45;25.50;61.10
8736;DHT22;4404;49.308;12.178;2023-07-20T12:47:49;26.10;62.00
8736;DHT22;4404;49.308;12.178;2023-07-20T12:50:01;27.10;60.50
8736;DHT22;4404;49.308;12.178;2023-07-20T12:52:05;28.10;58.60
8736;DHT22;4404;49.308;12.178;2023-07-20T12:54:08;28.80;57.50
8736;DHT22;4404;49.308;12.178;2023-07-20T12:56:11;29.10;54.90
8736;DHT22;4404;49.308;12.178;2023-07-20T12:58:13;29.20;53.80
8736;DHT22;4404;49.308;12.178;2023-07-20T13:00:16;29.00;55.70
8736;DHT22;4404;49.308;12.178;2023-07-20T13:02:19;29.60;59.70
8736;DHT22;4404;49.308;12.178;2023-07-20T13:04:24;29.00;59.70
8736;DHT22;4404;49.308;12.178;2023-07-20T13:06:28;29.00;61.90
8736;DHT22;4404;49.308;12.178;2023-07-20T13:08:33;28.90;59.00
8736;DHT22;4404;49.308;12.178;2023-07-20T13:10:35;28.30;57.20
8736;DHT22;4404;49.308;12.178;2023-07-20T13:16:43;29.10;50.90
8736;DHT22;4404;49.308;12.178;2023-07-20T13:18:49;29.10;53.60
8736;DHT22;4404;49.308;12.178;2023-07-20T13:20:52;29.00;50.70
8736;DHT22;4404;49.308;12.178;2023-07-20T13:22:58;28.80;51.40
8736;DHT22;4404;49.308;12.178;2023-07-20T13:25:00;28.50;49.40
8736;DHT22;4404;49.308;12.178;2023-07-20T13:27:16;27.50;49.60
8736;DHT22;4404;49.308;12.178;2023-07-20T13:31:33;29.50;48.20
8736;DHT22;4404;49.308;12.178;2023-07-20T13:33:36;29.50;47.80
8736;DHT22;4404;49.308;12.178;2023-07-20T13:35:40;29.20;48.50
8736;DHT22;4404;49.308;12.178;2023-07-20T13:37:44;28.70;49.90
8736;DHT22;4404;49.308;12.178;2023-07-20T13:39:46;27.90;50.00
8736;DHT22;4404;49.308;12.178;2023-07-20T13:41:49;27.60;48.90
8736;DHT22;4404;49.308;12.178;2023-07-20T13:43:51;27.70;49.50
8736;DHT22;4404;49.308;12.178;2023-07-20T13:45:53;28.00;50.20
8736;DHT22;4404;49.308;12.178;2023-07-20T13:47:55;28.10;50.10
8736;DHT22;4404;49.308;12.178;2023-07-20T13:50:00;27.60;50.20
8736;DHT22;4404;49.308;12.178;2023-07-20T13:52:03;28.00;49.70
8736;DHT22;4404;49.308;12.178;2023-07-20T13:54:06;28.70;48.90
8736;DHT22;4404;49.308;12.178;2023-07-20T13:56:09;29.00;47.10
8736;DHT22;4404;49.308;12.178;2023-07-20T13:58:11;28.80;45.30
8736;DHT22;4404;49.308;12.178;2023-07-20T14:00:13;28.40;46.00
8736;DHT22;4404;49.308;12.178;2023-07-20T14:02:16;28.10;47.10
8736;DHT22;4404;49.308;12.178;2023-07-20T14:04:18;28.20;46.60
8736;DHT22;4404;49.308;12.178;2023-07-20T14:06:20;28.50;46.70
8736;DHT22;4404;49.308;12.178;2023-07-20T14:08:22;28.70;46.80
8736;DHT22;4404;49.308;12.178;2023-07-20T14:10:26;29.00;45.70
8736;DHT22;4404;49.308;12.178;2023-07-20T14:12:28;29.50;44.90
8736;DHT22;4404;49.308;12.178;2023-07-20T14:14:30;29.20;44.00
8736;DHT22;4404;49.308;12.178;2023-07-20T14:16:33;29.10;45.10
8736;DHT22;4404;49.308;12.178;2023-07-20T14:18:35;28.90;44.70
8736;DHT22;4404;49.308;12.178;2023-07-20T14:20:36;28.60;45.30
8736;DHT22;4404;49.308;12.178;2023-07-20T14:26:46;28.80;45.20
8736;DHT22;4404;49.308;12.178;2023-07-20T14:28:49;28.30;45.60
8736;DHT22;4404;49.308;12.178;2023-07-20T14:32:54;27.40;46.10
8736;DHT22;4404;49.308;12.178;2023-07-20T14:34:56;27.40;45.50
8736;DHT22;4404;49.308;12.178;2023-07-20T14:36:59;27.50;44.90
8736;DHT22;4404;49.308;12.178;2023-07-20T14:39:01;27.60;44.50
8736;DHT22;4404;49.308;12.178;2023-07-20T14:41:04;27.60;45.30
8736;DHT22;4404;49.308;12.178;2023-07-20T14:43:07;27.90;44.30
8736;DHT22;4404;49.308;12.178;2023-07-20T14:45:10;28.00;45.10
8736;DHT22;4404;49.308;12.178;2023-07-20T14:47:12;27.90;45.50
8736;DHT22;4404;49.308;12.178;2023-07-20T14:49:14;28.10;46.50
8736;DHT22;4404;49.308;12.178;2023-07-20T14:51:16;28.20;45.90
8736;DHT22;4404;49.308;12.178;2023-07-20T14:53:18;28.20;46.40
8736;DHT22;4404;49.308;12.178;2023-07-20T14:55:19;28.00;45.00
8736;DHT22;4404;49.308;12.178;2023-07-20T14:57:22;27.70;45.50
8736;DHT22;4404;49.308;12.178;2023-07-20T14:59:26;27.60;46.70
8736;DHT22;4404;49.308;12.178;2023-07-20T15:01:28;27.70;45.80
8736;DHT22;4404;49.308;12.178;2023-07-20T15:03:30;27.80;46.10
8736;DHT22;4404;49.308;12.178;2023-07-20T15:05:32;27.50;45.70
8736;DHT22;4404;49.308;12.178;2023-07-20T15:07:36;27.40;45.70
8736;DHT22;4404;49.308;12.178;2023-07-20T15:09:38;27.50;46.70
8736;DHT22;4404;49.308;12.178;2023-07-20T15:11:40;27.80;46.00
8736;DHT22;4404;49.308;12.178;2023-07-20T15:13:44;27.50;45.70
8736;DHT22;4404;49.308;12.178;2023-07-20T15:15:47;27.10;45.60
8736;DHT22;4404;49.308;12.178;2023-07-20T15:17:50;26.60;44.70
8736;DHT22;4404;49.308;12.178;2023-07-20T15:19:53;26.50;45.20
8736;DHT22;4404;49.308;12.178;2023-07-20T15:21:55;26.60;45.40
8736;DHT22;4404;49.308;12.178;2023-07-20T15:23:57;27.10;44.80
8736;DHT22;4404;49.308;12.178;2023-07-20T15:25:59;27.10;44.80
8736;DHT22;4404;49.308;12.178;2023-07-20T15:28:02;26.90;44.00
8736;DHT22;4404;49.308;12.178;2023-07-20T15:30:05;26.80;44.30
8736;DHT22;4404;49.308;12.178;2023-07-20T15:32:09;26.80;44.50
8736;DHT22;4404;49.308;12.178;2023-07-20T15:34:11;26.80;45.50
8736;DHT22;4404;49.308;12.178;2023-07-20T15:36:15;26.70;44.70
8736;DHT22;4404;49.308;12.178;2023-07-20T15:38:18;26.50;45.00
8736;DHT22;4404;49.308;12.178;2023-07-20T15:42:22;26.30;45.70
8736;DHT22;4404;49.308;12.178;2023-07-20T15:44:24;26.10;46.10
8736;DHT22;4404;49.308;12.178;2023-07-20T15:46:46;26.20;46.20
8736;DHT22;4404;49.308;12.178;2023-07-20T15:48:51;26.30;46.20
8736;DHT22;4404;49.308;12.178;2023-07-20T15:50:52;26.60;45.90
8736;DHT22;4404;49.308;12.178;2023-07-20T15:52:54;26.70;44.50
8736;DHT22;4404;49.308;12.178;2023-07-20T15:54:56;26.80;45.20
8736;DHT22;4404;49.308;12.178;2023-07-20T15:56:58;27.20;44.40
8736;DHT22;4404;49.308;12.178;2023-07-20T15:59:01;27.40;43.90
8736;DHT22;4404;49.308;12.178;2023-07-20T16:01:02;27.70;44.10
8736;DHT22;4404;49.308;12.178;2023-07-20T16:03:04;27.80;43.70
8736;DHT22;4404;49.308;12.178;2023-07-20T16:05:08;27.90;43.60
8736;DHT22;4404;49.308;12.178;2023-07-20T16:07:10;27.90;44.00
8736;DHT22;4404;49.308;12.178;2023-07-20T16:09:12;27.70;43.40
8736;DHT22;4404;49.308;12.178;2023-07-20T16:11:15;27.50;43.40
8736;DHT22;4404;49.308;12.178;2023-07-20T16:15:19;27.00;43.10
8736;DHT22;4404;49.308;12.178;2023-07-20T16:17:22;26.40;44.50
8736;DHT22;4404;49.308;12.178;2023-07-20T16:19:24;26.30;45.10
8736;DHT22;4404;49.308;12.178;2023-07-20T16:21:27;26.40;44.80
8736;DHT22;4404;49.308;12.178;2023-07-20T16:23:29;26.30;44.80
8736;DHT22;4404;49.308;12.178;2023-07-20T16:25:31;26.30;44.80
8736;DHT22;4404;49.308;12.178;2023-07-20T16:27:33;26.30;45.90
8736;DHT22;4404;49.308;12.178;2023-07-20T16:29:36;26.30;46.10
8736;DHT22;4404;49.308;12.178;2023-07-20T16:33:42;26.70;44.70
8736;DHT22;4404;49.308;12.178;2023-07-20T16:35:46;26.70;45.10
8736;DHT22;4404;49.308;12.178;2023-07-20T16:37:50;26.80;44.40
8736;DHT22;4404;49.308;12.178;2023-07-20T16:39:53;26.80;44.80
8736;DHT22;4404;49.308;12.178;2023-07-20T16:41:55;26.80;44.90
8736;DHT22;4404;49.308;12.178;2023-07-20T16:43:57;26.80;44.80
8736;DHT22;4404;49.308;12.178;2023-07-20T16:45:59;26.90;45.90
8736;DHT22;4404;49.308;12.178;2023-07-20T16:48:01;26.90;46.40
8736;DHT22;4404;49.308;12.178;2023-07-20T16:50:04;27.10;45.20
8736;DHT22;4404;49.308;12.178;2023-07-20T16:52:07;27.20;44.40
8736;DHT22;4404;49.308;12.178;2023-07-20T16:54:11;27.00;44.40
8736;DHT22;4404;49.308;12.178;2023-07-20T16:56:13;26.50;44.90
8736;DHT22;4404;49.308;12.178;2023-07-20T16:58:15;26.20;45.40
8736;DHT22;4404;49.308;12.178;2023-07-20T17:00:17;26.00;46.20
8736;DHT22;4404;49.308;12.178;2023-07-20T17:02:20;25.90;46.50
8736;DHT22;4404;49.308;12.178;2023-07-20T17:04:22;25.80;47.10
8736;DHT22;4404;49.308;12.178;2023-07-20T17:06:24;25.80;46.60
8736;DHT22;4404;49.308;12.178;2023-07-20T17:08:25;25.70;46.40
8736;DHT22;4404;49.308;12.178;2023-07-20T17:10:29;25.60;47.30
8736;DHT22;4404;49.308;12.178;2023-07-20T17:12:31;25.60;47.50
8736;DHT22;4404;49.308;12.178;2023-07-20T17:14:33;25.60;48.60
8736;DHT22;4404;49.308;12.178;2023-07-20T17:16:35;25.60;47.30
8736;DHT22;4404;49.308;12.178;2023-07-20T17:18:38;25.50;47.60
8736;DHT22;4404;49.308;12.178;2023-07-20T17:20:42;25.40;47.30
8736;DHT22;4404;49.308;12.178;2023-07-20T17:22:44;25.30;47.40
8736;DHT22;4404;49.308;12.178;2023-07-20T17:24:46;25.50;49.30
8736;DHT22;4404;49.308;12.178;2023-07-20T17:26:54;25.40;47.50
8736;DHT22;4404;49.308;12.178;2023-07-20T17:29:08;25.60;50.20
8736;DHT22;4404;49.308;12.178;2023-07-20T17:31:15;25.60;49.00
8736;DHT22;4404;49.308;12.178;2023-07-20T17:35:23;24.70;47.10
8736;DHT22;4404;49.308;12.178;2023-07-20T17:37:30;25.50;48.70
8736;DHT22;4404;49.308;12.178;2023-07-20T17:42:39;25.40;48.60
8736;DHT22;4404;49.308;12.178;2023-07-20T17:44:44;25.40;49.80
8736;DHT22;4404;49.308;12.178;2023-07-20T17:46:49;25.40;49.40
8736;DHT22;4404;49.308;12.178;2023-07-20T17:48:52;25.20;48.80
8736;DHT22;4404;49.308;12.178;2023-07-20T17:50:56;25.10;50.50
8736;DHT22;4404;49.308;12.178;2023-07-20T17:52:59;24.00;49.00
8736;DHT22;4404;49.308;12.178;2023-07-20T17:55:08;25.10;49.50
8736;DHT22;4404;49.308;12.178;2023-07-20T17:57:16;25.10;50.20
8736;DHT22;4404;49.308;12.178;2023-07-20T17:59:44;25.20;50.30
8736;DHT22;4404;49.308;12.178;2023-07-20T18:08:40;24.70;52.10
8736;DHT22;4404;49.308;12.178;2023-07-20T18:10:44;24.70;50.90
8736;DHT22;4404;49.308;12.178;2023-07-20T18:12:50;24.70;51.60
8736;DHT22;4404;49.308;12.178;2023-07-20T18:15:10;24.70;53.10
8736;DHT22;4404;49.308;12.178;2023-07-20T18:17:16;24.70;52.20
8736;DHT22;4404;49.308;12.178;2023-07-20T18:19:22;24.60;52.60
8736;DHT22;4404;49.308;12.178;2023-07-20T18:21:25;24.60;53.20
8736;DHT22;4404;49.308;12.178;2023-07-20T18:23:29;24.50;53.40
8736;DHT22;4404;49.308;12.178;2023-07-20T18:25:34;24.60;53.30
8736;DHT22;4404;49.308;12.178;2023-07-20T18:27:37;24.50;53.40
8736;DHT22;4404;49.308;12.178;2023-07-20T18:29:43;24.50;54.10
8736;DHT22;4404;49.308;12.178;2023-07-20T18:31:47;24.50;55.00
8736;DHT22;4404;49.308;12.178;2023-07-20T18:33:50;24.40;54.70
8736;DHT22;4404;49.308;12.178;2023-07-20T18:35:57;24.40;54.60
8736;DHT22;4404;49.308;12.178;2023-07-20T18:38:03;24.30;55.10
8736;DHT22;4404;49.308;12.178;2023-07-20T18:40:10;24.30;55.00
8736;DHT22;4404;49.308;12.178;2023-07-20T18:42:13;24.20;55.20
8736;DHT22;4404;49.308;12.178;2023-07-20T18:44:15;24.10;55.90
8736;DHT22;4404;49.308;12.178;2023-07-20T18:46:17;24.00;56.30
8736;DHT22;4404;49.308;12.178;2023-07-20T18:48:20;24.10;57.90
8736;DHT22;4404;49.308;12.178;2023-07-20T18:50:22;23.90;57.50
8736;DHT22;4404;49.308;12.178;2023-07-20T18:52:25;23.80;58.20
8736;DHT22;4404;49.308;12.178;2023-07-20T18:54:26;23.70;58.60
8736;DHT22;4404;49.308;12.178;2023-07-20T18:56:29;23.60;58.50
8736;DHT22;4404;49.308;12.178;2023-07-20T18:58:30;23.50;58.80
8736;DHT22;4404;49.308;12.178;2023-07-20T19:00:32;23.30;59.20
8736;DHT22;4404;49.308;12.178;2023-07-20T19:02:34;23.10;59.90
8736;DHT22;4404;49.308;12.178;2023-07-20T19:04:37;23.00;60.10
8736;DHT22;4404;49.308;12.178;2023-07-20T19:06:39;22.90;60.40
8736;DHT22;4404;49.308;12.178;2023-07-20T19:08:42;22.80;61.20
8736;DHT22;4404;49.308;12.178;2023-07-20T19:10:44;22.70;60.60
8736;DHT22;4404;49.308;12.178;2023-07-20T19:12:46;22.60;61.90
8736;DHT22;4404;49.308;12.178;2023-07-20T19:14:48;22.50;62.50
8736;DHT22;4404;49.308;12.178;2023-07-20T19:16:50;22.40;63.00
8736;DHT22;4404;49.308;12.178;2023-07-20T19:18:52;22.30;63.10
8736;DHT22;4404;49.308;12.178;2023-07-20T19:20:59;22.20;63.60
8736;DHT22;4404;49.308;12.178;2023-07-20T19:23:02;22.20;63.60
8736;DHT22;4404;49.308;12.178;2023-07-20T19:25:07;22.10;63.80
8736;DHT22;4404;49.308;12.178;2023-07-20T19:27:12;22.10;64.10
8736;DHT22;4404;49.308;12.178;2023-07-20T19:29:15;22.00;64.80